Etusivu
METAR-TAF:

METAR-TAF

Lentoasemat :

Kunming, Kiina

Leveyspiiri: 25-01N, Pituuspiiri: 102-41E, korkeus merenpinnasta: 1892 m

Tämänhetkinen sää

Tämä raportti tehtiin 36 minuuttia sitten, kello 04.00 UTC
Tuuli 6 kn lännestä/lounaasta, vaihdellen etelän ja luoteen välillä
Lämpötila 24°C
Kosteus 61%
Ilmanpaine 1019 hPa
Näkyvyys 10 km tai enemmän
Hajanaisia pilviä 2300 ft:n korkeudessa
Hajanaisia pilviä 4000 ft:n korkeudessa

METAR: ZPPP 270400Z 24003MPS 180V320 9999 SCT023 SCT040 24/16 Q1019 NOSIG

Aika: 12:36 (04:36 UTC)

Sääennuste

Tämä raportti tehtiin 9 tuntia ja 31 minuuttia sitten, kello 19.05 UTC
Ennuste voimassa 27. päivästä klo 00 UTC - 27. päivään klo 24 UTC
Tuuli 8 kn etelästä/lounaasta
Näkyvyys 10 km tai enemmän
Hajanaisia pilviä 2600 ft:n korkeudessa
Hajonneita pilviä 4000 ft:n korkeudessa

TAF: ZPPP 261905Z 2700/2724 21004MPS 9999 SCT026 BKN040 TX27/2708Z TN16/2700Z

Säähavainnot ja -ennusteet yli 4000 lentoasemalta (METAR- ja TAF-raportit).

Käytössä olevat sääasemat on merkitty karttaan keltaisilla ja punaisilla pisteillä.

Aseta hiiri pisteen päälle nähdäksesi sääaseman nimen.

Klikkaa sitten nähdäksesi säähavainnot ja -ennusteet.

Kartan vaihtaminen: klikkaa mustalla rastilla varustettuja vihreitä pisteitä, niin voit zoomata sisään; viivalla varustettua vihreää pistettä, niin voit zoomata ulos tai vihreitä nuolia, niin pääset viereisille kartoille.


METAR-TAF: